Time;durP1;ratioP1;P1;durP2;ratioP2;P2;SDS_P1;SDS_P2;PMS_P1;PMS_P2;Temp;Humidity;BMP_temperature;BMP_pressure;BME280_temperature;BME280_humidity;BME280_pressure;Samples;Min_cycle;Max_cycle;Signal;HPM_P1;HPM_P2
2022/11/06 00:01:15;;;;;;;7.60;3.37;;;19.80;49.00;;;;;;5127783;28;20447;-83
2022/11/06 00:03:43;;;;;;;6.47;3.27;;;19.80;49.10;;;;;;5133600;28;20473;-83
2022/11/06 00:08:59;;;;;;;4.87;3.50;;;19.80;49.20;;;;;;5113479;28;20460;-83
2022/11/06 00:11:27;;;;;;;4.90;3.10;;;19.80;49.30;;;;;;5121116;28;20431;-82
2022/11/06 00:13:56;;;;;;;8.60;3.93;;;19.70;49.20;;;;;;5123124;28;20486;-82
2022/11/06 00:16:25;;;;;;;4.33;3.60;;;19.80;49.20;;;;;;5125045;28;20454;-83
2022/11/06 00:18:53;;;;;;;6.40;3.90;;;19.80;49.30;;;;;;5122189;28;20475;-83
2022/11/06 00:21:23;;;;;;;6.40;3.57;;;19.80;49.30;;;;;;5116460;28;20469;-83
2022/11/06 00:23:51;;;;;;;5.33;3.33;;;19.80;49.20;;;;;;5123123;28;20449;-83
2022/11/06 00:26:21;;;;;;;4.80;3.03;;;19.80;49.30;;;;;;5121523;28;20414;-83
2022/11/06 00:28:49;;;;;;;3.60;3.30;;;19.70;49.20;;;;;;5120816;28;20467;-83
2022/11/06 00:31:20;;;;;;;7.80;4.00;;;19.80;49.30;;;;;;5121090;28;20448;-84
2022/11/06 00:33:48;;;;;;;4.47;3.63;;;19.70;49.20;;;;;;5120960;28;20531;-83
2022/11/06 00:36:17;;;;;;;8.03;3.67;;;19.70;49.10;;;;;;5126926;28;20447;-84
2022/11/06 00:38:44;;;;;;;4.63;3.47;;;19.70;49.20;;;;;;5125094;28;20475;-84
2022/11/06 00:41:14;;;;;;;4.17;3.17;;;19.70;49.30;;;;;;5122030;28;20448;-84
2022/11/06 00:43:43;;;;;;;5.20;3.50;;;19.70;49.30;;;;;;5120917;28;20470;-83
2022/11/06 00:46:12;;;;;;;4.43;3.20;;;19.70;49.20;;;;;;5120827;28;20444;-83
2022/11/06 00:48:41;;;;;;;4.53;3.47;;;19.60;49.30;;;;;;5122111;28;20436;-84
2022/11/06 00:51:12;;;;;;;6.10;3.60;;;19.60;49.20;;;;;;5120618;28;20443;-83
2022/11/06 00:53:41;;;;;;;6.03;3.57;;;19.70;49.30;;;;;;5121229;28;20459;-83
2022/11/06 00:56:10;;;;;;;7.70;3.70;;;19.70;49.30;;;;;;5121507;28;20451;-83
2022/11/06 00:58:38;;;;;;;4.67;3.50;;;19.60;49.20;;;;;;5111215;28;20455;-82
2022/11/06 01:01:09;;;;;;;3.50;3.17;;;19.60;49.20;;;;;;5120313;28;20450;-83
2022/11/06 01:03:37;;;;;;;6.30;3.60;;;19.60;49.30;;;;;;5125314;27;20478;-82
2022/11/06 01:06:08;;;;;;;3.77;3.43;;;19.60;49.20;;;;;;5129515;27;20448;-83
2022/11/06 01:08:36;;;;;;;6.27;3.67;;;19.60;49.30;;;;;;5123979;28;20428;-83
2022/11/06 01:11:09;;;;;;;6.47;4.80;;;19.60;49.20;;;;;;5128476;28;20459;-83
2022/11/06 01:13:37;;;;;;;11.93;6.20;;;19.60;49.30;;;;;;5128092;27;20449;-83
2022/11/06 01:16:06;;;;;;;10.80;5.80;;;19.60;49.30;;;;;;5147271;27;20443;-83
2022/11/06 01:18:34;;;;;;;11.37;6.53;;;19.60;49.20;;;;;;5150040;27;20475;-83
2022/11/06 01:21:04;;;;;;;10.70;6.17;;;19.60;49.20;;;;;;5149978;27;20439;-83
2022/11/06 01:23:33;;;;;;;7.87;5.77;;;19.60;49.20;;;;;;5149692;27;20493;-83
2022/11/06 01:26:03;;;;;;;7.27;5.33;;;19.60;49.10;;;;;;5148169;27;20436;-83
2022/11/06 01:28:31;;;;;;;7.67;5.63;;;19.50;49.10;;;;;;5129868;27;20443;-83
2022/11/06 01:31:02;;;;;;;6.97;5.40;;;19.50;49.10;;;;;;5124392;28;20444;-83
2022/11/06 01:33:30;;;;;;;9.43;6.07;;;19.60;49.20;;;;;;5127857;28;20440;-83
2022/11/06 01:35:58;;;;;;;8.20;5.43;;;19.60;49.20;;;;;;5133233;27;20470;-83
2022/11/06 01:38:27;;;;;;;7.80;5.50;;;19.50;49.20;;;;;;5106532;28;20456;-83
2022/11/06 01:40:56;;;;;;;9.83;5.43;;;19.60;49.10;;;;;;5103857;28;20455;-83
2022/11/06 01:43:26;;;;;;;10.93;5.33;;;19.60;49.20;;;;;;5104172;28;20555;-82
2022/11/06 01:45:54;;;;;;;8.10;5.30;;;19.50;49.20;;;;;;5120034;28;20455;-83
2022/11/06 01:48:24;;;;;;;9.70;4.80;;;19.50;49.10;;;;;;5125461;28;20428;-83
2022/11/06 01:50:55;;;;;;;7.93;4.77;;;19.50;49.10;;;;;;5125947;28;20447;-83
2022/11/06 01:53:23;;;;;;;7.90;5.13;;;19.50;49.20;;;;;;5124896;28;20476;-83
2022/11/06 01:55:53;;;;;;;10.30;5.03;;;19.50;49.20;;;;;;5124929;28;20435;-83
2022/11/06 01:58:23;;;;;;;9.20;5.43;;;19.50;49.20;;;;;;5124783;28;20475;-82
2022/11/06 02:00:52;;;;;;;6.13;4.50;;;19.50;49.20;;;;;;5126593;28;20873;-82
2022/11/06 02:03:20;;;;;;;10.00;4.97;;;19.50;49.20;;;;;;5124464;27;20544;-83
2022/11/06 02:05:48;;;;;;;6.10;3.60;;;19.50;49.10;;;;;;5121626;27;20445;-83
2022/11/06 02:08:17;;;;;;;7.13;5.00;;;19.50;49.10;;;;;;5123041;28;20451;-82
2022/11/06 02:10:45;;;;;;;8.27;3.97;;;19.50;49.10;;;;;;5121129;27;20465;-84
2022/11/06 02:13:21;;;;;;;4.30;3.67;;;19.50;49.10;;;;;;5112366;28;20467;-83
2022/11/06 02:15:53;;;;;;;5.00;4.20;;;19.50;49.10;;;;;;5128082;28;20447;-83
2022/11/06 02:18:44;;;;;;;5.00;4.13;;;19.50;49.10;;;;;;5124771;28;20474;-84
2022/11/06 02:21:31;;;;;;;5.47;4.17;;;19.50;49.10;;;;;;5110466;28;20429;-84
2022/11/06 02:24:35;;;;;;;5.97;3.70;;;19.50;49.20;;;;;;5108748;28;20460;-84
2022/11/06 02:27:10;;;;;;;6.60;4.07;;;19.50;49.20;;;;;;5122979;28;20478;-84
2022/11/06 02:29:42;;;;;;;7.20;4.37;;;19.50;49.30;;;;;;5122283;28;20458;-84
2022/11/06 02:32:12;;;;;;;6.20;4.03;;;19.40;49.30;;;;;;5126287;28;20439;-84
2022/11/06 02:34:39;;;;;;;5.03;4.00;;;19.40;49.40;;;;;;5126226;28;20476;-84
2022/11/06 02:37:10;;;;;;;7.07;4.20;;;19.40;49.30;;;;;;5127042;28;20466;-85
2022/11/06 02:39:39;;;;;;;5.33;3.77;;;19.50;49.40;;;;;;5128472;27;20477;-84
2022/11/06 02:42:08;;;;;;;6.00;3.60;;;19.40;49.30;;;;;;5126269;28;20444;-84
2022/11/06 02:44:36;;;;;;;3.70;3.40;;;19.50;49.20;;;;;;5126913;28;20463;-84
2022/11/06 02:47:06;;;;;;;6.07;3.67;;;19.40;49.40;;;;;;5127790;28;20454;-84
2022/11/06 02:49:38;;;;;;;6.23;4.10;;;19.40;49.20;;;;;;5133427;27;20454;-83
2022/11/06 02:52:10;;;;;;;5.53;4.17;;;19.40;49.20;;;;;;5126714;27;20460;-83
2022/11/06 02:54:39;;;;;;;4.33;3.40;;;19.40;49.20;;;;;;5128220;28;20459;-83
2022/11/06 02:57:13;;;;;;;3.97;3.57;;;19.40;49.20;;;;;;5125714;28;20436;-83
2022/11/06 02:59:44;;;;;;;6.97;3.57;;;19.40;49.20;;;;;;5126174;28;20464;-83
2022/11/06 03:02:15;;;;;;;3.80;3.40;;;19.40;49.20;;;;;;5126253;28;20455;-83
2022/11/06 03:04:46;;;;;;;5.73;3.80;;;19.40;49.20;;;;;;5114181;28;20465;-84
2022/11/06 03:07:16;;;;;;;3.80;3.23;;;19.40;49.30;;;;;;5122586;28;20428;-84
2022/11/06 03:09:44;;;;;;;6.30;3.97;;;19.30;49.20;;;;;;5124985;28;20444;-83
2022/11/06 03:12:20;;;;;;;8.20;3.40;;;19.30;49.30;;;;;;5126800;28;20411;-83
2022/11/06 03:14:52;;;;;;;5.07;3.40;;;19.40;49.20;;;;;;5126396;28;20479;-84
2022/11/06 03:17:21;;;;;;;9.10;3.60;;;19.30;49.20;;;;;;5129224;27;20450;-83
2022/11/06 03:19:50;;;;;;;4.83;3.33;;;19.30;49.20;;;;;;5121547;28;20474;-83
2022/11/06 03:22:23;;;;;;;5.10;3.47;;;19.30;49.20;;;;;;5124437;28;20463;-83
2022/11/06 03:24:54;;;;;;;4.80;3.63;;;19.30;49.20;;;;;;5123633;28;20468;-84
2022/11/06 03:27:27;;;;;;;3.70;3.40;;;19.30;49.40;;;;;;5121151;28;20472;-83
2022/11/06 03:29:58;;;;;;;4.00;3.60;;;19.30;49.20;;;;;;5121908;28;20973;-83
2022/11/06 03:32:28;;;;;;;5.60;3.57;;;19.30;49.20;;;;;;5122121;27;20444;-83
2022/11/06 03:34:59;;;;;;;5.07;3.73;;;19.30;49.20;;;;;;5107441;28;20447;-82
2022/11/06 03:37:29;;;;;;;7.40;3.63;;;19.30;49.10;;;;;;5119010;28;20507;-83
2022/11/06 03:39:58;;;;;;;4.77;3.37;;;19.30;49.10;;;;;;5120308;28;20464;-83
2022/11/06 03:42:29;;;;;;;6.83;3.30;;;19.20;49.20;;;;;;5121646;28;20499;-83
2022/11/06 03:44:58;;;;;;;3.33;3.03;;;19.20;49.10;;;;;;5121365;28;20474;-83
2022/11/06 03:47:28;;;;;;;5.63;3.47;;;19.20;49.10;;;;;;5122252;28;20519;-83
2022/11/06 03:49:58;;;;;;;4.37;3.33;;;19.20;49.20;;;;;;5123529;28;20440;-83
2022/11/06 03:52:29;;;;;;;5.07;3.37;;;19.20;49.10;;;;;;5121678;28;20428;-83
2022/11/06 03:54:58;;;;;;;3.60;3.30;;;19.20;49.10;;;;;;5126530;28;20467;-83
2022/11/06 03:57:31;;;;;;;6.30;3.50;;;19.20;49.10;;;;;;5121000;28;20448;-83
2022/11/06 03:59:59;;;;;;;4.37;3.10;;;19.20;49.10;;;;;;5120641;28;20470;-83
2022/11/06 04:02:28;;;;;;;5.10;3.00;;;19.20;49.00;;;;;;5109319;28;20452;-82
2022/11/06 04:04:57;;;;;;;5.60;3.50;;;19.20;49.10;;;;;;5115249;28;20460;-83
2022/11/06 04:07:26;;;;;;;4.47;3.33;;;19.20;49.10;;;;;;5124777;28;20448;-84
2022/11/06 04:15:33;;;;;;;4.80;3.50;;;19.20;49.30;;;;;;5130662;28;20416;-84
2022/11/06 04:18:02;;;;;;;8.33;3.03;;;19.20;49.30;;;;;;5138298;28;20465;-83
2022/11/06 04:23:27;;;;;;;11.50;3.33;;;19.10;49.30;;;;;;5118228;28;20451;-84
2022/11/06 04:28:49;;;;;;;9.03;3.00;;;19.10;49.40;;;;;;5132916;28;20440;-84
2022/11/06 04:31:20;;;;;;;5.93;3.27;;;19.10;49.60;;;;;;5119765;28;20455;-85
2022/11/06 04:33:51;;;;;;;3.17;2.83;;;19.00;49.40;;;;;;5116299;28;20478;-83
2022/11/06 04:36:22;;;;;;;4.60;3.50;;;19.00;49.70;;;;;;5120362;28;20440;-82
2022/11/06 04:38:53;;;;;;;5.57;3.03;;;19.00;49.70;;;;;;5134324;27;20468;-82
2022/11/06 04:41:33;;;;;;;6.00;3.50;;;19.00;50.00;;;;;;5125658;27;20459;-83
2022/11/06 04:44:05;;;;;;;6.23;3.53;;;19.00;49.80;;;;;;5123004;28;20473;-83
2022/11/06 04:46:35;;;;;;;4.00;3.50;;;19.00;49.80;;;;;;5139376;27;20453;-82
2022/11/06 04:49:04;;;;;;;5.40;3.63;;;19.00;49.80;;;;;;5137440;27;20458;-82
2022/11/06 04:51:33;;;;;;;5.07;3.43;;;19.00;50.00;;;;;;5115066;27;20443;-83
2022/11/06 04:54:01;;;;;;;5.20;3.47;;;19.00;50.00;;;;;;5124921;28;20467;-83
2022/11/06 04:56:30;;;;;;;3.43;3.13;;;19.00;50.00;;;;;;5124863;28;20435;-83
2022/11/06 04:59:03;;;;;;;5.77;3.00;;;19.00;50.10;;;;;;5124494;28;20431;-82
2022/11/06 05:01:32;;;;;;;4.30;3.30;;;19.00;50.00;;;;;;5118429;28;20468;-83
2022/11/06 05:04:00;;;;;;;8.60;3.80;;;19.00;50.00;;;;;;5103591;28;20507;-83
2022/11/06 05:06:29;;;;;;;2.93;2.73;;;19.00;50.10;;;;;;5122646;28;20454;-83
2022/11/06 05:08:57;;;;;;;3.90;3.43;;;19.00;50.10;;;;;;5124804;28;20469;-83
2022/11/06 05:11:26;;;;;;;5.03;3.20;;;19.00;50.10;;;;;;5124113;28;20452;-83
2022/11/06 05:13:54;;;;;;;10.10;3.40;;;19.00;50.80;;;;;;5124926;28;20459;-83
2022/11/06 05:16:23;;;;;;;4.30;2.83;;;19.00;50.20;;;;;;5134613;27;20448;-83
2022/11/06 05:18:51;;;;;;;4.43;3.43;;;18.90;50.10;;;;;;5145812;27;20458;-82
2022/11/06 05:24:06;;;;;;;3.30;3.00;;;18.90;50.20;;;;;;5124349;28;20459;-82
2022/11/06 05:26:34;;;;;;;4.07;3.13;;;18.90;50.30;;;;;;5124538;28;20458;-82
2022/11/06 05:29:02;;;;;;;3.27;2.90;;;18.90;50.40;;;;;;5123440;28;20447;-83
2022/11/06 05:31:32;;;;;;;4.37;3.43;;;18.80;50.20;;;;;;5125204;28;20432;-82
2022/11/06 05:34:00;;;;;;;7.27;3.57;;;18.80;50.40;;;;;;5104143;28;20476;-82
2022/11/06 05:36:28;;;;;;;4.53;3.10;;;18.80;50.50;;;;;;5102572;28;20437;-82
2022/11/06 05:38:56;;;;;;;4.60;3.00;;;18.80;50.50;;;;;;5116783;28;20462;-81
2022/11/06 05:41:24;;;;;;;5.43;3.37;;;18.80;50.60;;;;;;5126617;28;20476;-82
2022/11/06 05:43:52;;;;;;;6.17;3.40;;;18.80;50.60;;;;;;5127869;28;20463;-83
2022/11/06 05:46:21;;;;;;;7.33;3.17;;;18.80;50.70;;;;;;5125644;27;20447;-83
2022/11/06 05:49:11;;;;;;;3.23;2.90;;;18.80;50.60;;;;;;5129746;27;20447;-83
2022/11/06 05:51:39;;;;;;;6.53;3.27;;;18.80;50.70;;;;;;5139102;27;20432;-83
2022/11/06 05:54:07;;;;;;;4.90;2.87;;;18.80;50.80;;;;;;5135710;28;20476;-83
2022/11/06 05:56:35;;;;;;;6.10;3.10;;;18.90;50.90;;;;;;5124388;28;20448;-83
2022/11/06 05:59:04;;;;;;;6.80;3.10;;;18.80;50.80;;;;;;5130133;28;20458;-83
2022/11/06 06:01:32;;;;;;;3.43;3.17;;;18.80;50.90;;;;;;5125421;27;21053;-83
2022/11/06 06:04:00;;;;;;;5.00;3.33;;;18.80;50.90;;;;;;5136284;27;20496;-83
2022/11/06 06:06:30;;;;;;;5.23;3.70;;;18.80;50.80;;;;;;5155510;27;20438;-84
2022/11/06 06:08:58;;;;;;;4.50;3.40;;;18.80;51.00;;;;;;5152268;27;20449;-84
2022/11/06 06:11:26;;;;;;;3.10;2.80;;;18.80;51.00;;;;;;5148826;27;20447;-84
2022/11/06 06:13:54;;;;;;;4.70;2.87;;;18.70;51.00;;;;;;5129052;28;20463;-83
2022/11/06 06:16:22;;;;;;;3.33;2.80;;;18.70;51.00;;;;;;5115233;28;20429;-84
2022/11/06 06:18:51;;;;;;;3.07;2.77;;;18.70;51.00;;;;;;5136722;27;20447;-84
2022/11/06 06:21:19;;;;;;;3.97;3.23;;;18.70;51.10;;;;;;5132303;28;20467;-83
2022/11/06 06:23:48;;;;;;;5.47;3.30;;;18.70;51.00;;;;;;5132770;28;20448;-83
2022/11/06 06:26:22;;;;;;;4.27;2.73;;;18.70;51.00;;;;;;5133831;28;20444;-83
2022/11/06 06:28:51;;;;;;;4.57;2.87;;;18.70;51.00;;;;;;5128005;28;20535;-83
2022/11/06 06:31:19;;;;;;;3.93;3.07;;;18.70;51.20;;;;;;5108780;28;20440;-83
2022/11/06 06:33:47;;;;;;;6.90;3.83;;;18.70;51.10;;;;;;5108461;28;20465;-83
2022/11/06 06:36:15;;;;;;;4.83;3.13;;;18.70;51.10;;;;;;5108609;28;20441;-82
2022/11/06 06:38:43;;;;;;;6.90;3.57;;;18.70;51.10;;;;;;5118194;28;20446;-83
2022/11/06 06:41:13;;;;;;;3.33;2.90;;;18.70;51.20;;;;;;5127640;28;20463;-82
2022/11/06 06:43:41;;;;;;;5.77;3.50;;;18.70;51.30;;;;;;5143257;27;20477;-83
2022/11/06 06:46:09;;;;;;;6.63;3.07;;;18.70;51.30;;;;;;5135571;27;20431;-83
2022/11/06 06:48:37;;;;;;;4.30;3.43;;;18.70;51.20;;;;;;5128696;28;20532;-84
2022/11/06 06:51:06;;;;;;;4.10;3.23;;;18.70;51.30;;;;;;5120603;28;20437;-83
2022/11/06 06:53:34;;;;;;;3.13;2.80;;;18.70;51.30;;;;;;5118038;27;20555;-83
2022/11/06 06:56:03;;;;;;;3.53;2.83;;;18.70;51.40;;;;;;5120621;28;20440;-83
2022/11/06 06:58:32;;;;;;;7.07;3.20;;;18.70;51.40;;;;;;5133746;28;20450;-83
2022/11/06 07:01:01;;;;;;;2.93;2.70;;;18.70;51.50;;;;;;5124418;28;20428;-83
2022/11/06 07:03:29;;;;;;;9.37;2.87;;;18.70;52.00;;;;;;5121620;28;20494;-83
2022/11/06 07:05:58;;;;;;;4.70;2.83;;;18.70;51.40;;;;;;5115198;28;20436;-83
2022/11/06 07:08:26;;;;;;;6.00;2.70;;;18.70;51.40;;;;;;5113705;27;20459;-83
2022/11/06 07:10:58;;;;;;;7.00;3.30;;;18.70;51.50;;;;;;5121943;28;20452;-83
2022/11/06 07:13:26;;;;;;;5.80;3.33;;;18.70;51.20;;;;;;5122448;28;20469;-83
2022/11/06 07:16:04;;;;;;;3.43;2.70;;;18.70;51.50;;;;;;5120081;28;20489;-83
2022/11/06 07:18:32;;;;;;;4.30;2.90;;;18.70;51.40;;;;;;5100311;28;20508;-83
2022/11/06 07:21:01;;;;;;;4.90;3.30;;;18.70;51.40;;;;;;5109707;28;20447;-83
2022/11/06 07:23:29;;;;;;;4.33;2.77;;;18.70;51.40;;;;;;5124923;27;20463;-83
2022/11/06 07:25:57;;;;;;;3.07;2.83;;;18.80;51.30;;;;;;5115229;28;20464;-82
2022/11/06 07:28:25;;;;;;;6.13;2.70;;;18.80;51.30;;;;;;5107344;28;20463;-83
2022/11/06 07:30:57;;;;;;;3.70;2.53;;;18.80;51.40;;;;;;5118149;28;20444;-83
2022/11/06 07:33:26;;;;;;;2.80;2.50;;;18.80;51.30;;;;;;5116652;28;20452;-83
2022/11/06 07:35:54;;;;;;;5.87;3.00;;;18.80;51.40;;;;;;5116838;28;20444;-83
2022/11/06 07:38:22;;;;;;;3.40;2.60;;;18.90;51.30;;;;;;5118979;28;20436;-82
2022/11/06 07:40:50;;;;;;;3.57;2.47;;;18.90;51.40;;;;;;5122287;28;20463;-83
2022/11/06 07:43:19;;;;;;;3.17;2.87;;;18.90;51.30;;;;;;5120228;27;20468;-83
2022/11/06 07:45:46;;;;;;;4.00;2.80;;;18.90;51.40;;;;;;5121314;28;20428;-82
2022/11/06 07:48:15;;;;;;;3.07;2.57;;;19.00;51.60;;;;;;5118054;28;20444;-83
2022/11/06 07:50:44;;;;;;;3.73;2.63;;;19.10;51.40;;;;;;5118983;28;20447;-82
2022/11/06 07:53:12;;;;;;;3.63;3.20;;;19.20;51.30;;;;;;5120194;28;20452;-83
2022/11/06 07:55:48;;;;;;;5.70;2.73;;;19.20;51.30;;;;;;5118696;28;20422;-83
2022/11/06 07:58:16;;;;;;;2.70;2.40;;;19.20;51.20;;;;;;5121673;28;20431;-83
2022/11/06 08:00:46;;;;;;;4.53;2.23;;;19.30;51.10;;;;;;5118364;28;20448;-81
2022/11/06 08:03:15;;;;;;;4.00;2.67;;;19.30;51.10;;;;;;5109909;28;20459;-82
2022/11/06 08:05:44;;;;;;;4.10;2.70;;;19.40;51.00;;;;;;5122382;28;20443;-82
2022/11/06 08:08:12;;;;;;;4.30;2.50;;;19.30;51.00;;;;;;5096314;28;20467;-82
2022/11/06 08:10:42;;;;;;;2.90;2.37;;;19.40;51.00;;;;;;5098059;28;20939;-81
2022/11/06 08:13:10;;;;;;;2.73;2.50;;;19.40;51.10;;;;;;5108351;28;20476;-83
2022/11/06 08:15:38;;;;;;;10.70;2.73;;;19.40;51.00;;;;;;5122851;28;20440;-82
2022/11/06 08:18:07;;;;;;;6.70;3.10;;;19.40;51.00;;;;;;5121574;28;20444;-82
2022/11/06 08:20:34;;;;;;;4.07;2.97;;;19.40;51.10;;;;;;5122553;28;20451;-81
2022/11/06 08:23:05;;;;;;;2.80;2.60;;;19.50;51.00;;;;;;5138352;27;20473;-83
2022/11/06 08:25:33;;;;;;;2.70;2.50;;;19.50;51.00;;;;;;5143854;27;20464;-83
2022/11/06 08:28:02;;;;;;;2.70;2.47;;;19.50;51.10;;;;;;5143067;27;20442;-82
2022/11/06 08:30:30;;;;;;;2.93;2.40;;;19.50;51.00;;;;;;5143792;27;20439;-83
2022/11/06 08:33:00;;;;;;;3.33;2.50;;;19.60;51.10;;;;;;5142143;27;20435;-83
2022/11/06 08:35:31;;;;;;;4.67;2.70;;;19.70;51.00;;;;;;5124297;27;20457;-83
2022/11/06 08:37:59;;;;;;;3.37;2.40;;;19.70;50.80;;;;;;5116464;28;20443;-82
2022/11/06 08:40:29;;;;;;;2.33;2.10;;;19.80;50.80;;;;;;5123415;28;20442;-81
2022/11/06 08:43:01;;;;;;;6.90;2.80;;;19.80;50.90;;;;;;5123271;28;20468;-80
2022/11/06 08:45:29;;;;;;;4.10;2.40;;;19.90;50.80;;;;;;5112107;28;20440;-81
2022/11/06 08:48:00;;;;;;;5.03;2.30;;;19.90;50.50;;;;;;5102252;28;20444;-81
2022/11/06 08:50:29;;;;;;;3.77;2.57;;;20.00;50.60;;;;;;5115757;27;20447;-80
2022/11/06 08:52:57;;;;;;;4.20;2.37;;;19.90;50.40;;;;;;5107744;28;20425;-81
2022/11/06 08:55:25;;;;;;;2.97;2.50;;;19.90;50.50;;;;;;5101029;28;20455;-81
2022/11/06 08:57:55;;;;;;;4.43;2.70;;;19.90;50.50;;;;;;5101770;28;20536;-80
2022/11/06 09:00:24;;;;;;;3.30;2.57;;;20.00;50.60;;;;;;5106107;28;20437;-82
2022/11/06 09:02:57;;;;;;;2.83;2.10;;;20.00;50.50;;;;;;5105764;28;20476;-84
2022/11/06 09:05:25;;;;;;;7.70;2.50;;;20.00;50.60;;;;;;5120184;27;20451;-83
2022/11/06 09:07:53;;;;;;;7.33;2.67;;;19.90;50.40;;;;;;5118107;27;20451;-84
2022/11/06 09:10:21;;;;;;;2.57;2.37;;;20.00;50.40;;;;;;5122827;28;20447;-85
2022/11/06 09:12:49;;;;;;;2.60;2.40;;;20.00;50.50;;;;;;5124277;28;20432;-84
2022/11/06 09:15:19;;;;;;;4.83;2.30;;;20.00;50.50;;;;;;5125321;28;20450;-85
2022/11/06 09:17:48;;;;;;;3.53;2.50;;;20.00;50.40;;;;;;5125323;28;20443;-83
2022/11/06 09:20:17;;;;;;;4.90;2.50;;;20.00;50.30;;;;;;5119924;28;20439;-84
2022/11/06 09:22:45;;;;;;;4.47;2.73;;;20.10;50.50;;;;;;5129329;27;20474;-83
2022/11/06 09:25:14;;;;;;;2.60;2.10;;;20.10;50.40;;;;;;5139358;27;20470;-84
2022/11/06 09:27:42;;;;;;;5.13;2.77;;;20.20;50.40;;;;;;5120174;28;20467;-85
2022/11/06 09:30:12;;;;;;;2.47;2.27;;;20.20;50.20;;;;;;5118964;28;20454;-84
2022/11/06 09:32:46;;;;;;;4.83;2.40;;;20.20;50.20;;;;;;5119024;28;20832;-84
2022/11/06 09:35:15;;;;;;;3.47;2.13;;;20.20;50.10;;;;;;5123031;27;20448;-85
2022/11/06 09:37:43;;;;;;;2.90;2.37;;;20.10;50.00;;;;;;5121837;27;20449;-84
2022/11/06 09:40:17;;;;;;;4.33;2.53;;;20.10;50.30;;;;;;5115907;28;20428;-84
2022/11/06 09:42:54;;;;;;;4.17;2.53;;;20.10;50.30;;;;;;5118163;28;20467;-84
2022/11/06 09:45:23;;;;;;;4.17;2.47;;;20.20;50.40;;;;;;5098254;28;20436;-85
2022/11/06 09:47:54;;;;;;;2.50;2.00;;;20.30;50.40;;;;;;5103226;28;20445;-84
2022/11/06 09:50:25;;;;;;;2.67;2.20;;;20.50;50.20;;;;;;5104371;28;20437;-83
2022/11/06 09:52:54;;;;;;;4.83;2.30;;;20.60;50.20;;;;;;5099780;28;20414;-82
2022/11/06 09:55:24;;;;;;;4.23;2.30;;;20.50;49.70;;;;;;5121498;28;20434;-81
2022/11/06 09:57:54;;;;;;;2.80;1.90;;;20.50;49.90;;;;;;5129074;28;20428;-83
2022/11/06 10:00:22;;;;;;;1.93;1.80;;;20.50;49.80;;;;;;5135099;27;20445;-83
2022/11/06 10:02:52;;;;;;;3.80;2.40;;;20.50;50.10;;;;;;5131922;27;20472;-83
2022/11/06 10:05:25;;;;;;;1.93;1.80;;;20.60;50.20;;;;;;5132785;27;20492;-84
2022/11/06 10:07:54;;;;;;;3.00;2.03;;;20.60;50.10;;;;;;5114907;27;20458;-83
2022/11/06 10:10:25;;;;;;;5.93;2.17;;;20.70;50.00;;;;;;5132233;27;20443;-82
2022/11/06 10:13:02;;;;;;;2.03;1.87;;;20.80;50.10;;;;;;5129626;27;20447;-82
2022/11/06 10:15:32;;;;;;;3.53;2.00;;;21.00;50.10;;;;;;5125817;28;20428;-83
2022/11/06 10:18:06;;;;;;;3.80;2.30;;;21.20;49.90;;;;;;5127979;28;20448;-84
2022/11/06 10:20:36;;;;;;;5.17;2.27;;;21.40;49.80;;;;;;5128032;27;20454;-84
2022/11/06 10:23:05;;;;;;;3.13;1.80;;;21.70;49.80;;;;;;5139330;27;20481;-83
2022/11/06 10:25:45;;;;;;;2.30;2.00;;;21.90;49.10;;;;;;5124413;28;20456;-83
2022/11/06 10:28:21;;;;;;;4.60;2.40;;;21.90;48.80;;;;;;5121516;28;20456;-82
2022/11/06 10:30:56;;;;;;;3.10;2.10;;;22.00;49.60;;;;;;5126012;27;20491;-82
2022/11/06 10:33:31;;;;;;;2.30;1.80;;;22.30;49.60;;;;;;5128443;27;20455;-82
2022/11/06 10:36:00;;;;;;;4.47;2.00;;;22.70;49.50;;;;;;5115891;28;20493;-82
2022/11/06 10:38:30;;;;;;;2.90;2.00;;;23.10;49.10;;;;;;5123670;27;20447;-83
2022/11/06 10:40:58;;;;;;;2.90;2.00;;;23.40;48.60;;;;;;5129229;27;20442;-83
2022/11/06 10:43:29;;;;;;;2.13;1.90;;;23.70;49.00;;;;;;5111403;28;20455;-81
2022/11/06 10:46:01;;;;;;;2.33;2.13;;;24.10;48.70;;;;;;5115785;27;20589;-81
2022/11/06 10:48:32;;;;;;;3.27;1.90;;;24.10;47.80;;;;;;5121744;27;20460;-82
2022/11/06 10:51:28;;;;;;;3.97;2.30;;;24.00;47.90;;;;;;5120336;28;20447;-82
2022/11/06 10:54:01;;;;;;;8.27;2.13;;;23.90;48.00;;;;;;5119393;28;20468;-81
2022/11/06 10:56:39;;;;;;;2.40;1.60;;;24.00;48.20;;;;;;5117426;28;20451;-81
2022/11/06 10:59:07;;;;;;;2.47;1.70;;;24.10;48.10;;;;;;5117377;28;20452;-81
2022/11/06 11:01:35;;;;;;;3.53;1.63;;;24.40;48.30;;;;;;5121620;27;20456;-80
2022/11/06 11:04:05;;;;;;;3.90;1.93;;;24.60;47.60;;;;;;5133750;27;20567;-80
2022/11/06 11:06:33;;;;;;;5.07;1.90;;;24.70;47.30;;;;;;5128452;27;20462;-80
2022/11/06 11:09:01;;;;;;;2.30;1.90;;;24.70;47.10;;;;;;5119074;28;20448;-81
2022/11/06 11:11:29;;;;;;;2.43;2.00;;;24.70;47.10;;;;;;5131889;27;20434;-82
2022/11/06 11:14:14;;;;;;;1.57;1.47;;;24.70;47.30;;;;;;5138734;27;20429;-81
2022/11/06 11:16:44;;;;;;;4.50;1.83;;;25.40;47.60;;;;;;5120086;28;20402;-81
2022/11/06 11:19:26;;;;;;;3.20;1.80;;;25.70;46.50;;;;;;5118736;28;20432;-81
2022/11/06 11:21:56;;;;;;;2.50;1.77;;;25.90;45.70;;;;;;5112183;27;20452;-81
2022/11/06 11:24:24;;;;;;;6.17;2.07;;;25.70;45.40;;;;;;5128584;27;20479;-81
2022/11/06 11:26:53;;;;;;;3.33;2.00;;;25.60;45.40;;;;;;5128943;27;20490;-81
2022/11/06 11:29:25;;;;;;;2.70;2.00;;;25.40;45.50;;;;;;5128327;27;20434;-81
2022/11/06 11:31:54;;;;;;;2.30;2.10;;;25.30;45.50;;;;;;5118352;28;20451;-82
2022/11/06 11:34:25;;;;;;;3.70;2.00;;;25.20;45.60;;;;;;5129846;27;20479;-80
2022/11/06 11:36:56;;;;;;;2.30;1.73;;;25.00;45.80;;;;;;5121040;28;20474;-83
2022/11/06 11:39:27;;;;;;;5.13;1.73;;;24.80;45.80;;;;;;5121758;28;20403;-82
2022/11/06 11:42:16;;;;;;;6.00;2.00;;;24.80;46.70;;;;;;5120516;28;20889;-81
2022/11/06 11:44:44;;;;;;;6.40;1.83;;;24.90;46.10;;;;;;5104559;28;20440;-82
2022/11/06 11:47:20;;;;;;;1.90;1.50;;;24.90;45.80;;;;;;5098763;28;20445;-81
2022/11/06 11:49:50;;;;;;;1.70;1.60;;;24.80;45.40;;;;;;5118947;27;20480;-80
2022/11/06 11:52:19;;;;;;;1.90;1.70;;;24.70;45.50;;;;;;5127955;27;20451;-81
2022/11/06 11:54:48;;;;;;;2.23;1.47;;;24.60;45.60;;;;;;5124833;27;20857;-80
2022/11/06 11:57:18;;;;;;;2.37;2.10;;;24.50;45.70;;;;;;5124258;27;20829;-77
2022/11/06 11:59:47;;;;;;;3.67;3.20;;;24.30;46.50;;;;;;5093590;28;20414;-77
2022/11/06 12:02:17;;;;;;;2.80;2.60;;;24.40;49.50;;;;;;5111799;28;20418;-77
2022/11/06 12:04:54;;;;;;;18.73;3.50;;;24.50;51.00;;;;;;5113298;28;20485;-79
2022/11/06 12:07:24;;;;;;;9.27;4.03;;;24.40;52.60;;;;;;5138034;28;20464;-79
2022/11/06 12:09:52;;;;;;;7.50;3.17;;;24.40;53.00;;;;;;5136959;28;20450;-79
2022/11/06 12:12:21;;;;;;;13.33;3.17;;;24.50;53.40;;;;;;5116433;28;20450;-80
2022/11/06 12:15:04;;;;;;;4.70;3.10;;;24.60;54.00;;;;;;5117227;28;20460;-79
2022/11/06 12:17:33;;;;;;;5.13;2.90;;;24.60;54.20;;;;;;5123546;28;20430;-79
2022/11/06 12:20:03;;;;;;;7.13;3.13;;;24.60;54.30;;;;;;5117129;28;20451;-79
2022/11/06 12:22:34;;;;;;;7.20;3.50;;;24.60;54.50;;;;;;5116474;28;20432;-79
2022/11/06 12:25:04;;;;;;;8.97;3.33;;;24.60;54.80;;;;;;5119219;28;20503;-79
2022/11/06 12:27:33;;;;;;;5.87;3.30;;;24.60;55.60;;;;;;5132693;28;20434;-78
2022/11/06 12:30:06;;;;;;;6.60;3.27;;;24.70;55.30;;;;;;5116574;28;20440;-79
2022/11/06 12:32:43;;;;;;;6.97;3.00;;;24.70;55.30;;;;;;5130310;28;20429;-79
2022/11/06 12:35:17;;;;;;;7.90;3.13;;;24.80;55.30;;;;;;5136768;28;20438;-79
2022/11/06 12:37:52;;;;;;;6.93;3.57;;;24.80;55.20;;;;;;5135081;28;20431;-79
2022/11/06 12:40:21;;;;;;;10.13;3.57;;;24.80;55.10;;;;;;5128387;28;20952;-79
2022/11/06 12:43:00;;;;;;;8.20;3.63;;;24.70;55.40;;;;;;5121727;28;20423;-79
2022/11/06 12:45:36;;;;;;;9.60;3.93;;;24.70;55.50;;;;;;5101233;28;20465;-77
2022/11/06 12:48:09;;;;;;;7.20;3.30;;;24.60;55.70;;;;;;5133625;28;20409;-77
2022/11/06 12:50:39;;;;;;;8.53;3.60;;;24.60;55.80;;;;;;5115045;28;20407;-79
2022/11/06 12:53:24;;;;;;;9.30;3.03;;;24.50;55.60;;;;;;5119596;28;20438;-79
2022/11/06 12:55:55;;;;;;;8.67;3.20;;;24.40;55.90;;;;;;5122299;28;20410;-77
2022/11/06 12:58:37;;;;;;;4.83;3.00;;;24.30;56.20;;;;;;5116477;28;20414;-79
2022/11/06 13:01:07;;;;;;;4.50;3.07;;;24.30;56.20;;;;;;5120270;28;20447;-78
2022/11/06 13:03:47;;;;;;;7.27;3.10;;;24.30;56.30;;;;;;5119826;27;20475;-78
2022/11/06 13:06:19;;;;;;;8.13;3.20;;;24.30;56.40;;;;;;5122592;27;20471;-78
2022/11/06 13:08:50;;;;;;;7.20;2.97;;;24.30;56.60;;;;;;5119114;28;20410;-79
2022/11/06 13:11:23;;;;;;;4.77;3.30;;;24.40;56.70;;;;;;5118030;28;20455;-78
2022/11/06 13:14:04;;;;;;;5.20;3.00;;;24.40;56.40;;;;;;5138958;27;20924;-78
2022/11/06 13:16:35;;;;;;;4.50;2.77;;;24.50;56.60;;;;;;5138714;27;20409;-79
2022/11/06 13:19:06;;;;;;;5.27;3.07;;;24.50;56.40;;;;;;5138030;27;20443;-78